Time;durP1;ratioP1;P1;durP2;ratioP2;P2;SDS_P1;SDS_P2;PMS_P1;PMS_P2;Temp;Humidity;BMP_temperature;BMP_pressure;BME280_temperature;BME280_humidity;BME280_pressure;Samples;Min_cycle;Max_cycle;Signal;HPM_P1;HPM_P2
2022/05/26 00:02:00;;;;;;;9.13;4.20;;;;;;;;;;5014736;28;20033;-64
2022/05/26 00:04:27;;;;;;;6.13;4.05;;;;;;;;;;5014552;28;20045;-64
2022/05/26 00:06:53;;;;;;;12.73;4.10;;;;;;;;;;5014474;28;20465;-69
2022/05/26 00:09:19;;;;;;;7.15;4.13;;;;;;;;;;5014477;28;20045;-72
2022/05/26 00:11:45;;;;;;;7.70;3.95;;;;;;;;;;5014146;28;20384;-72
2022/05/26 00:14:11;;;;;;;11.95;4.00;;;;;;;;;;5014020;28;20026;-69
2022/05/26 00:16:39;;;;;;;6.75;3.88;;;;;;;;;;5014286;28;20108;-64
2022/05/26 00:19:05;;;;;;;7.13;4.20;;;;;;;;;;5012559;28;20042;-72
2022/05/26 00:21:31;;;;;;;8.80;4.00;;;;;;;;;;4999386;28;20073;-66
2022/05/26 00:23:57;;;;;;;7.00;4.10;;;;;;;;;;4993958;28;20046;-72
2022/05/26 00:26:24;;;;;;;6.88;4.20;;;;;;;;;;4994495;28;20100;-68
2022/05/26 00:28:50;;;;;;;9.52;4.03;;;;;;;;;;4994133;28;20122;-68
2022/05/26 00:31:16;;;;;;;10.48;4.43;;;;;;;;;;4994291;28;20494;-70
2022/05/26 00:33:42;;;;;;;7.05;4.10;;;;;;;;;;4994162;28;20041;-69
2022/05/26 00:36:11;;;;;;;5.60;4.03;;;;;;;;;;4993928;28;20380;-66
2022/05/26 00:38:41;;;;;;;6.88;3.90;;;;;;;;;;4993666;28;20366;-64
2022/05/26 00:41:11;;;;;;;6.30;4.30;;;;;;;;;;4993858;28;20038;-65
2022/05/26 00:43:45;;;;;;;9.07;4.97;;;;;;;;;;4993909;28;20401;-63
2022/05/26 00:46:33;;;;;;;10.40;5.63;;;;;;;;;;4993793;28;20030;-63
2022/05/26 00:49:01;;;;;;;11.45;5.38;;;;;;;;;;4993905;28;20485;-67
2022/05/26 00:51:37;;;;;;;6.40;4.70;;;;;;;;;;4993469;28;20026;-66
2022/05/26 00:54:17;;;;;;;7.57;5.25;;;;;;;;;;4993798;28;20382;-64
2022/05/26 00:57:10;;;;;;;9.07;4.93;;;;;;;;;;4993026;28;20484;-66
2022/05/26 00:59:42;;;;;;;7.18;4.70;;;;;;;;;;4973815;28;20038;-67
2022/05/26 01:02:12;;;;;;;8.32;5.00;;;;;;;;;;4973035;28;20067;-67
2022/05/26 01:04:53;;;;;;;10.35;5.38;;;;;;;;;;4980995;28;20038;-65
2022/05/26 01:07:27;;;;;;;10.13;5.82;;;;;;;;;;4986218;28;20038;-64
2022/05/26 01:09:53;;;;;;;9.25;5.13;;;;;;;;;;4993349;28;20069;-66
2022/05/26 01:12:19;;;;;;;7.38;4.63;;;;;;;;;;4992326;28;20057;-65
2022/05/26 01:14:50;;;;;;;12.23;5.38;;;;;;;;;;4993205;28;20034;-63
2022/05/26 01:17:55;;;;;;;9.60;4.20;;;;;;;;;;4993228;28;20038;-64
2022/05/26 01:20:46;;;;;;;10.20;5.03;;;;;;;;;;4992704;28;20045;-64
2022/05/26 01:23:37;;;;;;;8.90;4.97;;;;;;;;;;4992413;28;20110;-64
2022/05/26 01:26:36;;;;;;;9.85;5.10;;;;;;;;;;4992765;28;20096;-65
2022/05/26 01:29:34;;;;;;;11.30;5.70;;;;;;;;;;4992705;28;20061;-64
2022/05/26 01:32:15;;;;;;;10.35;4.97;;;;;;;;;;4992359;28;20129;-67
2022/05/26 01:34:49;;;;;;;11.25;5.72;;;;;;;;;;4992889;28;20034;-64
2022/05/26 01:37:42;;;;;;;10.05;5.47;;;;;;;;;;4993193;28;20067;-64
2022/05/26 01:40:29;;;;;;;14.38;5.88;;;;;;;;;;4992997;28;20388;-64
2022/05/26 01:43:07;;;;;;;24.63;8.15;;;;;;;;;;4992344;28;20030;-64
2022/05/26 01:45:57;;;;;;;12.82;6.05;;;;;;;;;;4992424;28;20030;-64
2022/05/26 01:48:33;;;;;;;10.15;6.30;;;;;;;;;;4992721;28;20035;-68
2022/05/26 01:51:17;;;;;;;9.90;5.95;;;;;;;;;;4992963;28;20042;-63
2022/05/26 01:54:28;;;;;;;8.75;6.00;;;;;;;;;;4990368;28;20117;-66
2022/05/26 01:57:04;;;;;;;9.95;6.55;;;;;;;;;;4992426;28;20121;-66
2022/05/26 01:59:47;;;;;;;9.50;6.13;;;;;;;;;;4992519;28;20030;-65
2022/05/26 02:02:37;;;;;;;9.35;5.60;;;;;;;;;;4992803;28;20034;-65
2022/05/26 02:05:19;;;;;;;7.30;5.72;;;;;;;;;;4992340;28;20535;-64
2022/05/26 02:08:01;;;;;;;6.93;5.68;;;;;;;;;;4990508;28;20030;-65
2022/05/26 02:10:59;;;;;;;8.70;5.68;;;;;;;;;;4992639;28;20042;-64
2022/05/26 02:13:37;;;;;;;7.70;5.38;;;;;;;;;;4992130;28;20081;-66
2022/05/26 02:16:12;;;;;;;7.90;5.72;;;;;;;;;;4992434;28;20050;-68
2022/05/26 02:19:01;;;;;;;7.10;4.82;;;;;;;;;;4992219;28;20038;-64
2022/05/26 02:21:35;;;;;;;6.43;4.93;;;;;;;;;;4992235;28;20034;-66
2022/05/26 02:24:12;;;;;;;8.48;5.45;;;;;;;;;;4991928;28;20073;-65
2022/05/26 02:26:39;;;;;;;9.45;5.43;;;;;;;;;;4991924;28;20532;-65
2022/05/26 02:31:50;;;;;;;8.23;6.65;;;;;;;;;;4992447;28;20042;-64
2022/05/26 02:34:19;;;;;;;8.35;5.50;;;;;;;;;;4992293;28;20469;-65
2022/05/26 02:36:46;;;;;;;16.52;6.75;;;;;;;;;;4992077;28;20121;-64
2022/05/26 02:39:12;;;;;;;9.95;5.90;;;;;;;;;;4990465;28;20439;-64
2022/05/26 02:41:39;;;;;;;12.00;5.82;;;;;;;;;;4992230;28;20113;-65
2022/05/26 02:44:06;;;;;;;9.70;5.60;;;;;;;;;;4991828;28;20141;-65
2022/05/26 02:47:00;;;;;;;10.68;6.00;;;;;;;;;;4991788;28;20045;-64
2022/05/26 02:50:00;;;;;;;15.43;6.45;;;;;;;;;;4991946;28;20084;-64
2022/05/26 02:52:45;;;;;;;10.25;6.32;;;;;;;;;;4992011;28;20035;-64
2022/05/26 02:55:20;;;;;;;16.73;10.60;;;;;;;;;;4991431;28;20048;-64
2022/05/26 02:57:55;;;;;;;17.08;12.25;;;;;;;;;;4992798;28;20366;-64
2022/05/26 03:00:31;;;;;;;10.18;7.38;;;;;;;;;;4992321;28;20096;-64
2022/05/26 03:03:09;;;;;;;10.05;5.55;;;;;;;;;;4991856;28;20034;-64
2022/05/26 03:06:12;;;;;;;10.93;6.43;;;;;;;;;;4991639;28;20031;-64
2022/05/26 03:08:40;;;;;;;14.13;6.10;;;;;;;;;;4991401;28;20052;-67
2022/05/26 03:11:11;;;;;;;9.68;5.43;;;;;;;;;;4991693;28;20031;-68
2022/05/26 03:13:38;;;;;;;13.18;5.70;;;;;;;;;;4991722;28;20064;-64
2022/05/26 03:16:05;;;;;;;18.38;6.80;;;;;;;;;;4991582;28;20034;-66
2022/05/26 03:18:31;;;;;;;11.65;6.55;;;;;;;;;;4993096;28;20169;-68
2022/05/26 03:20:59;;;;;;;12.65;6.63;;;;;;;;;;4995548;28;20465;-65
2022/05/26 03:23:25;;;;;;;19.98;6.75;;;;;;;;;;4995198;28;20046;-64
2022/05/26 03:25:50;;;;;;;15.48;6.95;;;;;;;;;;4995601;28;20030;-65
2022/05/26 03:28:16;;;;;;;10.00;5.80;;;;;;;;;;4995413;28;20118;-63
2022/05/26 03:30:42;;;;;;;14.90;5.97;;;;;;;;;;4995573;28;20040;-64
2022/05/26 03:33:08;;;;;;;13.45;6.45;;;;;;;;;;4995940;28;20385;-65
2022/05/26 03:41:04;;;;;;;11.93;6.68;;;;;;;;;;4994891;28;20034;-64
2022/05/26 03:43:37;;;;;;;16.90;6.68;;;;;;;;;;4995326;28;20472;-64
2022/05/26 03:46:05;;;;;;;11.63;5.70;;;;;;;;;;4995405;28;20037;-66
2022/05/26 03:48:31;;;;;;;12.90;6.95;;;;;;;;;;4995034;28;20081;-63
2022/05/26 03:50:56;;;;;;;26.88;6.88;;;;;;;;;;4995059;28;20033;-65
2022/05/26 03:53:23;;;;;;;17.35;7.32;;;;;;;;;;4994843;28;20030;-65
2022/05/26 03:55:49;;;;;;;12.13;6.40;;;;;;;;;;4994649;28;20053;-65
2022/05/26 03:58:14;;;;;;;19.55;6.95;;;;;;;;;;4994946;28;20023;-66
2022/05/26 04:00:40;;;;;;;21.63;6.18;;;;;;;;;;4994442;28;20401;-65
2022/05/26 04:03:06;;;;;;;24.50;7.03;;;;;;;;;;4994395;28;20469;-65
2022/05/26 04:05:32;;;;;;;18.55;6.03;;;;;;;;;;4994338;28;20113;-66
2022/05/26 04:07:58;;;;;;;28.70;7.18;;;;;;;;;;4993598;28;20084;-65
2022/05/26 04:10:23;;;;;;;23.30;6.90;;;;;;;;;;4994695;28;20037;-70
2022/05/26 04:12:49;;;;;;;25.77;9.27;;;;;;;;;;4994452;28;20031;-71
2022/05/26 04:15:17;;;;;;;19.40;7.20;;;;;;;;;;4994511;28;20092;-69
2022/05/26 04:17:43;;;;;;;17.70;7.10;;;;;;;;;;4994281;28;20022;-69
2022/05/26 04:20:12;;;;;;;22.55;8.13;;;;;;;;;;4993349;28;20034;-67
2022/05/26 04:22:38;;;;;;;27.42;7.90;;;;;;;;;;4992786;28;20113;-69
2022/05/26 04:25:05;;;;;;;35.75;8.18;;;;;;;;;;4991533;28;20391;-70
2022/05/26 04:27:32;;;;;;;20.33;7.80;;;;;;;;;;4993982;28;20093;-70
2022/05/26 04:29:58;;;;;;;26.52;8.98;;;;;;;;;;4977177;28;20101;-68
2022/05/26 04:32:26;;;;;;;13.95;8.00;;;;;;;;;;4973466;28;20039;-69
2022/05/26 04:34:52;;;;;;;21.27;8.40;;;;;;;;;;4973325;28;20117;-67
2022/05/26 04:37:19;;;;;;;14.65;7.15;;;;;;;;;;4973773;28;20058;-69
2022/05/26 04:39:45;;;;;;;13.85;7.32;;;;;;;;;;4973970;28;20038;-63
2022/05/26 04:42:12;;;;;;;18.83;7.45;;;;;;;;;;4973619;28;20027;-64
2022/05/26 04:44:41;;;;;;;16.83;7.65;;;;;;;;;;4973917;28;20042;-64
2022/05/26 04:47:07;;;;;;;11.65;7.38;;;;;;;;;;4975478;28;20470;-66
2022/05/26 04:49:35;;;;;;;15.65;8.30;;;;;;;;;;4974304;28;20031;-65
2022/05/26 04:52:01;;;;;;;27.35;8.40;;;;;;;;;;4974180;28;20331;-65
2022/05/26 04:54:27;;;;;;;24.25;8.43;;;;;;;;;;4974275;28;20042;-65
2022/05/26 04:56:58;;;;;;;23.92;9.27;;;;;;;;;;4975202;28;20030;-65
2022/05/26 04:59:26;;;;;;;12.85;7.75;;;;;;;;;;4975037;28;20462;-68
2022/05/26 05:01:52;;;;;;;18.30;8.30;;;;;;;;;;4975289;28;20027;-64
2022/05/26 05:04:18;;;;;;;12.40;8.13;;;;;;;;;;4974891;28;20482;-66
2022/05/26 05:06:44;;;;;;;20.05;8.77;;;;;;;;;;4975199;28;20044;-64
2022/05/26 05:09:10;;;;;;;12.88;7.38;;;;;;;;;;4993074;28;20076;-65
2022/05/26 05:11:36;;;;;;;16.88;8.85;;;;;;;;;;4992761;28;20117;-68
2022/05/26 05:14:03;;;;;;;11.55;8.00;;;;;;;;;;4994028;28;20073;-67
2022/05/26 05:16:42;;;;;;;17.23;7.15;;;;;;;;;;4992710;28;20038;-66
2022/05/26 05:19:16;;;;;;;12.55;7.30;;;;;;;;;;4993847;28;20133;-65
2022/05/26 05:22:13;;;;;;;13.38;7.15;;;;;;;;;;4993626;28;20030;-67
2022/05/26 05:24:45;;;;;;;14.20;7.65;;;;;;;;;;4993419;28;20054;-65
2022/05/26 05:27:24;;;;;;;16.20;7.17;;;;;;;;;;4993791;28;20042;-63
2022/05/26 05:29:53;;;;;;;9.57;7.43;;;;;;;;;;5008816;28;20283;-64
2022/05/26 05:32:34;;;;;;;15.10;7.20;;;;;;;;;;4976494;28;20058;-64
2022/05/26 05:35:06;;;;;;;9.25;7.10;;;;;;;;;;4974655;28;20110;-66
2022/05/26 05:37:33;;;;;;;11.25;7.13;;;;;;;;;;4993424;28;20035;-69
2022/05/26 05:40:00;;;;;;;18.30;7.93;;;;;;;;;;4993939;28;20030;-65
2022/05/26 05:42:28;;;;;;;13.02;7.35;;;;;;;;;;4993564;28;20089;-66
2022/05/26 05:44:54;;;;;;;15.85;8.73;;;;;;;;;;4993628;28;20080;-65
2022/05/26 05:47:20;;;;;;;13.27;7.10;;;;;;;;;;4976400;28;20023;-64
2022/05/26 05:49:48;;;;;;;16.30;8.30;;;;;;;;;;4973699;28;20093;-64
2022/05/26 05:52:19;;;;;;;11.48;7.15;;;;;;;;;;4973824;28;20027;-64
2022/05/26 05:54:45;;;;;;;14.38;7.70;;;;;;;;;;4973784;28;20046;-64
2022/05/26 05:57:10;;;;;;;17.35;8.50;;;;;;;;;;4974106;28;20023;-65
2022/05/26 05:59:36;;;;;;;12.80;7.38;;;;;;;;;;4974108;28;20035;-65
2022/05/26 06:02:03;;;;;;;16.55;7.80;;;;;;;;;;4972869;28;20049;-65
2022/05/26 06:04:28;;;;;;;13.43;8.07;;;;;;;;;;4989098;28;20057;-68
2022/05/26 06:06:54;;;;;;;16.38;7.65;;;;;;;;;;4993272;28;20022;-69
2022/05/26 06:09:20;;;;;;;19.55;8.27;;;;;;;;;;4993044;28;20034;-71
2022/05/26 06:11:48;;;;;;;23.95;7.32;;;;;;;;;;4993264;28;20492;-70
2022/05/26 06:14:14;;;;;;;21.90;8.30;;;;;;;;;;4993058;28;20034;-68
2022/05/26 06:16:40;;;;;;;13.25;7.75;;;;;;;;;;4992870;28;20484;-69
2022/05/26 06:19:06;;;;;;;12.95;7.07;;;;;;;;;;4992583;28;20034;-70
2022/05/26 06:21:35;;;;;;;16.30;6.75;;;;;;;;;;4992973;28;20037;-70
2022/05/26 06:24:01;;;;;;;10.40;6.63;;;;;;;;;;4993107;28;20037;-68
2022/05/26 06:26:28;;;;;;;11.98;7.22;;;;;;;;;;4992975;28;20027;-68
2022/05/26 06:37:28;;;;;;;13.75;6.18;;;;;;;;;;4992828;28;20026;-69
2022/05/26 06:39:55;;;;;;;14.48;5.97;;;;;;;;;;4993008;28;20532;-69
2022/05/26 06:42:24;;;;;;;12.93;6.43;;;;;;;;;;4992794;28;20101;-68
2022/05/26 06:44:57;;;;;;;13.48;6.97;;;;;;;;;;4991277;28;20033;-70
2022/05/26 06:47:23;;;;;;;15.48;6.63;;;;;;;;;;4992517;28;20121;-69
2022/05/26 06:49:50;;;;;;;11.55;6.25;;;;;;;;;;4989295;28;20023;-71
2022/05/26 06:52:18;;;;;;;14.18;6.22;;;;;;;;;;4981961;28;20031;-69
2022/05/26 06:54:45;;;;;;;11.35;5.18;;;;;;;;;;4989663;28;20037;-71
2022/05/26 06:57:15;;;;;;;11.23;6.18;;;;;;;;;;4992997;28;20038;-72
2022/05/26 06:59:41;;;;;;;15.43;6.05;;;;;;;;;;4977978;28;20053;-70
2022/05/26 07:02:09;;;;;;;15.20;5.93;;;;;;;;;;4995346;28;20046;-70
2022/05/26 07:04:37;;;;;;;14.85;6.15;;;;;;;;;;4994571;28;20073;-70
2022/05/26 07:07:03;;;;;;;9.80;5.22;;;;;;;;;;4995379;28;20541;-70
2022/05/26 07:09:30;;;;;;;14.98;5.65;;;;;;;;;;4994675;28;20018;-70
2022/05/26 07:11:57;;;;;;;13.85;6.15;;;;;;;;;;4992659;28;20128;-71
2022/05/26 07:14:22;;;;;;;15.85;5.78;;;;;;;;;;4981526;28;20033;-69
2022/05/26 07:16:48;;;;;;;15.57;5.93;;;;;;;;;;4975726;28;20031;-74
2022/05/26 07:19:15;;;;;;;12.65;5.63;;;;;;;;;;4981267;28;20448;-71
2022/05/26 07:21:51;;;;;;;12.98;6.30;;;;;;;;;;4991307;28;20038;-70
2022/05/26 07:24:23;;;;;;;11.30;5.30;;;;;;;;;;4983639;28;20106;-76
2022/05/26 07:26:49;;;;;;;10.77;6.25;;;;;;;;;;4983573;28;20045;-75
2022/05/26 07:29:16;;;;;;;13.55;5.68;;;;;;;;;;4984524;28;20034;-75
2022/05/26 07:31:42;;;;;;;13.50;6.40;;;;;;;;;;4983833;28;20109;-71
2022/05/26 07:34:07;;;;;;;12.82;6.05;;;;;;;;;;4984193;28;20469;-74
2022/05/26 07:42:17;;;;;;;16.00;5.78;;;;;;;;;;4994152;28;20701;-76
2022/05/26 07:44:45;;;;;;;16.85;6.10;;;;;;;;;;4994626;28;20048;-75
2022/05/26 07:47:12;;;;;;;20.15;6.65;;;;;;;;;;4994480;28;20031;-76
2022/05/26 07:49:43;;;;;;;11.50;6.13;;;;;;;;;;4994155;28;20030;-77
2022/05/26 07:52:13;;;;;;;15.73;6.32;;;;;;;;;;4993216;28;20046;-75
2022/05/26 07:54:39;;;;;;;15.48;6.45;;;;;;;;;;4993382;28;20038;-76
2022/05/26 07:57:05;;;;;;;17.95;6.03;;;;;;;;;;4993634;28;20033;-76
2022/05/26 07:59:32;;;;;;;13.48;5.90;;;;;;;;;;4994029;28;20034;-77
2022/05/26 08:01:58;;;;;;;14.70;5.68;;;;;;;;;;4993913;28;20410;-75
2022/05/26 08:04:24;;;;;;;11.23;5.45;;;;;;;;;;4993326;28;20062;-74
2022/05/26 08:06:50;;;;;;;12.85;5.22;;;;;;;;;;4993978;28;20104;-76
2022/05/26 08:09:18;;;;;;;12.77;5.18;;;;;;;;;;4994413;28;20393;-77
2022/05/26 08:11:44;;;;;;;14.20;4.68;;;;;;;;;;4993635;28;20030;-74
2022/05/26 08:14:11;;;;;;;9.88;5.18;;;;;;;;;;4994181;28;20396;-75
2022/05/26 08:16:38;;;;;;;9.13;4.57;;;;;;;;;;4993555;28;20037;-78
2022/05/26 08:19:05;;;;;;;10.35;5.13;;;;;;;;;;4993992;28;20027;-70
2022/05/26 08:21:31;;;;;;;10.80;5.07;;;;;;;;;;4994665;28;20082;-70
2022/05/26 08:23:58;;;;;;;27.17;5.15;;;;;;;;;;4995019;28;20038;-70
2022/05/26 08:26:23;;;;;;;16.98;5.07;;;;;;;;;;4994598;28;20030;-71
2022/05/26 08:28:49;;;;;;;12.07;5.03;;;;;;;;;;4994599;28;20054;-69
2022/05/26 08:31:15;;;;;;;14.93;5.15;;;;;;;;;;4992378;28;20783;-69
2022/05/26 08:33:42;;;;;;;12.40;5.30;;;;;;;;;;4986351;28;20477;-70
2022/05/26 08:36:11;;;;;;;14.20;5.65;;;;;;;;;;4974864;28;20053;-70
2022/05/26 08:38:37;;;;;;;12.18;5.45;;;;;;;;;;4973714;28;20051;-71
2022/05/26 08:41:04;;;;;;;13.77;5.68;;;;;;;;;;4973823;28;20037;-69
2022/05/26 08:43:40;;;;;;;15.63;5.63;;;;;;;;;;4974804;28;20478;-69
2022/05/26 08:46:08;;;;;;;11.23;4.93;;;;;;;;;;4974722;28;20477;-71
2022/05/26 08:49:10;;;;;;;17.25;5.10;;;;;;;;;;4974949;28;20492;-68
2022/05/26 08:52:12;;;;;;;12.52;5.07;;;;;;;;;;4974495;28;20051;-70
2022/05/26 08:54:47;;;;;;;10.82;6.72;;;;;;;;;;4974237;28;20102;-72
2022/05/26 08:57:17;;;;;;;9.68;4.78;;;;;;;;;;4974305;28;20039;-69
2022/05/26 08:59:45;;;;;;;14.73;5.15;;;;;;;;;;4974951;28;20037;-70
2022/05/26 09:02:25;;;;;;;8.27;4.53;;;;;;;;;;4993075;28;20465;-72
2022/05/26 09:04:54;;;;;;;11.75;5.07;;;;;;;;;;4992950;28;20139;-73
2022/05/26 09:13:08;;;;;;;13.70;4.95;;;;;;;;;;4992945;28;20037;-74
2022/05/26 09:15:36;;;;;;;15.65;5.28;;;;;;;;;;4992234;28;20032;-75
2022/05/26 09:18:18;;;;;;;13.88;4.35;;;;;;;;;;4992758;28;20264;-75
2022/05/26 09:20:46;;;;;;;12.63;5.10;;;;;;;;;;4991778;28;20041;-76
2022/05/26 09:23:24;;;;;;;9.77;4.22;;;;;;;;;;4992491;28;20472;-74
2022/05/26 09:26:20;;;;;;;11.15;5.00;;;;;;;;;;4992975;28;20111;-74
2022/05/26 09:28:53;;;;;;;14.40;4.90;;;;;;;;;;4991576;28;20452;-75
2022/05/26 09:31:35;;;;;;;13.05;4.22;;;;;;;;;;4991950;28;20031;-77
2022/05/26 09:34:16;;;;;;;14.02;4.28;;;;;;;;;;4991586;28;20037;-76
2022/05/26 09:37:00;;;;;;;13.95;5.13;;;;;;;;;;4982642;28;20054;-74
2022/05/26 09:39:46;;;;;;;13.30;4.07;;;;;;;;;;4983006;28;20373;-76
2022/05/26 09:42:16;;;;;;;12.75;4.35;;;;;;;;;;4978538;28;20031;-74
2022/05/26 09:45:04;;;;;;;7.90;3.75;;;;;;;;;;4973332;28;20544;-75
2022/05/26 09:47:53;;;;;;;10.50;3.92;;;;;;;;;;4973887;28;20053;-76
2022/05/26 09:50:37;;;;;;;12.63;4.63;;;;;;;;;;4986436;28;20370;-72
2022/05/26 09:53:10;;;;;;;10.65;4.43;;;;;;;;;;4993298;28;20054;-74
2022/05/26 09:55:49;;;;;;;11.38;4.10;;;;;;;;;;4993470;28;20046;-70
2022/05/26 09:58:29;;;;;;;7.07;3.45;;;;;;;;;;4993195;28;20482;-73
2022/05/26 10:01:01;;;;;;;13.05;4.22;;;;;;;;;;4992677;28;20477;-71
2022/05/26 10:03:36;;;;;;;10.97;3.73;;;;;;;;;;4992539;28;20034;-76
2022/05/26 10:06:22;;;;;;;10.23;3.45;;;;;;;;;;4991562;28;20279;-74
2022/05/26 10:09:03;;;;;;;12.38;3.90;;;;;;;;;;4992567;28;20120;-75
2022/05/26 10:11:35;;;;;;;10.75;4.18;;;;;;;;;;4993393;28;20034;-74
2022/05/26 10:14:11;;;;;;;13.80;3.95;;;;;;;;;;4992992;28;20125;-74
2022/05/26 10:16:46;;;;;;;12.95;4.45;;;;;;;;;;4992831;28;20504;-75
2022/05/26 10:19:32;;;;;;;9.07;3.53;;;;;;;;;;4992315;28;20503;-73
2022/05/26 10:22:16;;;;;;;15.48;4.32;;;;;;;;;;4984727;28;20031;-71
2022/05/26 10:25:10;;;;;;;10.82;4.15;;;;;;;;;;4990671;28;20041;-70
2022/05/26 10:27:53;;;;;;;12.90;4.00;;;;;;;;;;4991773;28;20417;-73
2022/05/26 10:30:41;;;;;;;12.25;4.00;;;;;;;;;;4992358;28;20058;-72
2022/05/26 10:33:35;;;;;;;7.70;3.67;;;;;;;;;;4991018;28;20069;-71
2022/05/26 10:36:23;;;;;;;14.35;4.35;;;;;;;;;;4992407;28;20073;-71
2022/05/26 10:38:48;;;;;;;17.27;4.90;;;;;;;;;;4992648;28;20473;-71
2022/05/26 10:41:30;;;;;;;10.50;3.58;;;;;;;;;;4992217;28;20025;-70
2022/05/26 10:44:11;;;;;;;10.35;3.25;;;;;;;;;;4985372;28;20474;-70
2022/05/26 10:46:49;;;;;;;11.60;3.65;;;;;;;;;;4983432;28;20034;-71
2022/05/26 10:49:25;;;;;;;12.45;3.90;;;;;;;;;;4979421;28;20045;-69
2022/05/26 10:52:20;;;;;;;7.40;3.67;;;;;;;;;;4973131;28;20102;-73
2022/05/26 10:54:55;;;;;;;11.18;3.70;;;;;;;;;;4972670;28;20070;-75
2022/05/26 10:57:40;;;;;;;9.10;3.35;;;;;;;;;;4975586;28;20070;-76
2022/05/26 11:00:14;;;;;;;7.93;3.15;;;;;;;;;;4992336;28;20126;-74
2022/05/26 11:02:56;;;;;;;8.75;3.35;;;;;;;;;;4990862;28;20046;-75
2022/05/26 11:05:35;;;;;;;7.60;2.70;;;;;;;;;;4992253;28;20170;-72
2022/05/26 11:08:23;;;;;;;9.93;3.20;;;;;;;;;;4992152;28;20061;-74
2022/05/26 11:11:09;;;;;;;12.32;3.45;;;;;;;;;;4991807;28;20584;-72
2022/05/26 11:13:34;;;;;;;13.65;3.53;;;;;;;;;;4991886;28;20034;-71
2022/05/26 11:19:02;;;;;;;9.23;3.08;;;;;;;;;;4992271;28;20038;-73
2022/05/26 11:21:28;;;;;;;10.95;3.38;;;;;;;;;;4992078;28;20042;-73
2022/05/26 11:23:56;;;;;;;7.90;3.08;;;;;;;;;;4992188;28;20022;-75
2022/05/26 11:27:06;;;;;;;8.45;3.85;;;;;;;;;;4992003;28;20026;-75
2022/05/26 11:29:46;;;;;;;12.70;2.92;;;;;;;;;;4981825;28;20049;-75
2022/05/26 11:38:23;;;;;;;11.90;3.75;;;;;;;;;;4991957;28;20324;-71
2022/05/26 11:41:06;;;;;;;13.40;6.82;;;;;;;;;;4994566;28;20497;-72
2022/05/26 11:43:58;;;;;;;12.50;3.78;;;;;;;;;;4995538;28;20497;-71
2022/05/26 11:46:43;;;;;;;11.20;3.60;;;;;;;;;;4995514;28;20068;-71
2022/05/26 11:49:43;;;;;;;11.02;4.40;;;;;;;;;;4995768;28;20030;-71
2022/05/26 11:52:34;;;;;;;12.23;3.63;;;;;;;;;;4995688;28;20121;-71
2022/05/26 11:55:02;;;;;;;11.82;3.67;;;;;;;;;;4995578;28;20066;-70
2022/05/26 11:57:41;;;;;;;13.63;3.22;;;;;;;;;;4995591;28;20050;-71
2022/05/26 12:00:16;;;;;;;11.38;3.38;;;;;;;;;;4995391;28;20037;-69
2022/05/26 12:02:46;;;;;;;12.93;3.50;;;;;;;;;;4995398;28;20066;-71
2022/05/26 12:05:30;;;;;;;11.02;3.25;;;;;;;;;;4994127;28;20030;-73
2022/05/26 12:08:22;;;;;;;14.82;3.72;;;;;;;;;;4995068;28;20034;-72
2022/05/26 12:10:55;;;;;;;10.00;3.33;;;;;;;;;;4995520;28;20378;-72
2022/05/26 12:13:25;;;;;;;15.15;3.22;;;;;;;;;;4995195;28;20146;-72
2022/05/26 12:16:14;;;;;;;13.35;3.45;;;;;;;;;;4995104;28;20038;-73
2022/05/26 12:18:48;;;;;;;17.55;3.40;;;;;;;;;;4995201;28;20039;-71
2022/05/26 12:21:35;;;;;;;11.63;3.40;;;;;;;;;;4994798;28;20053;-70
2022/05/26 12:24:32;;;;;;;9.75;3.20;;;;;;;;;;4995217;28;20537;-70
2022/05/26 12:27:00;;;;;;;13.48;3.22;;;;;;;;;;4994940;28;20042;-70
2022/05/26 12:29:41;;;;;;;11.10;3.40;;;;;;;;;;4995010;28;20038;-73
2022/05/26 12:32:20;;;;;;;13.90;3.65;;;;;;;;;;4995142;28;20680;-71
2022/05/26 12:35:20;;;;;;;9.77;3.03;;;;;;;;;;4994798;28;20034;-71
2022/05/26 12:37:52;;;;;;;13.57;3.47;;;;;;;;;;4994980;28;20148;-72
2022/05/26 12:40:40;;;;;;;9.55;3.83;;;;;;;;;;4993961;28;20058;-74
2022/05/26 12:43:23;;;;;;;13.45;6.72;;;;;;;;;;4994503;28;20023;-72
2022/05/26 12:45:51;;;;;;;17.25;3.72;;;;;;;;;;4994711;28;20057;-74
2022/05/26 12:48:38;;;;;;;13.88;3.67;;;;;;;;;;4994822;28;20105;-75
2022/05/26 12:51:10;;;;;;;11.15;3.63;;;;;;;;;;4992884;28;20030;-72
2022/05/26 12:53:39;;;;;;;10.98;2.85;;;;;;;;;;4993957;28;20034;-75
2022/05/26 12:56:04;;;;;;;13.18;3.60;;;;;;;;;;4994536;28;20118;-73
2022/05/26 12:58:30;;;;;;;12.55;3.63;;;;;;;;;;4994833;28;20054;-73
2022/05/26 13:00:56;;;;;;;13.10;3.65;;;;;;;;;;4994516;28;20025;-75
2022/05/26 13:03:48;;;;;;;15.02;3.63;;;;;;;;;;4994194;28;20503;-74
2022/05/26 13:06:34;;;;;;;16.48;4.00;;;;;;;;;;4993684;28;20039;-76
2022/05/26 13:09:14;;;;;;;15.30;3.47;;;;;;;;;;4994094;28;20136;-75
2022/05/26 13:11:52;;;;;;;8.15;2.70;;;;;;;;;;4994706;28;20481;-72
2022/05/26 13:14:36;;;;;;;14.10;3.40;;;;;;;;;;4994368;28;20117;-70
2022/05/26 13:17:13;;;;;;;14.57;3.50;;;;;;;;;;4994185;28;20121;-71
2022/05/26 13:19:43;;;;;;;9.15;3.03;;;;;;;;;;4994105;28;20034;-72
2022/05/26 13:22:30;;;;;;;9.68;2.85;;;;;;;;;;4993775;28;20045;-71
2022/05/26 13:25:01;;;;;;;14.43;3.33;;;;;;;;;;4993759;28;20407;-71
2022/05/26 13:27:44;;;;;;;12.23;3.10;;;;;;;;;;4993918;28;20126;-71
2022/05/26 13:33:42;;;;;;;15.13;3.78;;;;;;;;;;4994092;28;20465;-71
2022/05/26 13:36:16;;;;;;;8.93;2.83;;;;;;;;;;4992650;28;20031;-71
2022/05/26 13:38:46;;;;;;;12.15;3.10;;;;;;;;;;4993923;28;20054;-71
2022/05/26 13:41:17;;;;;;;13.68;3.30;;;;;;;;;;4993932;28;20034;-71
2022/05/26 13:43:46;;;;;;;18.38;3.45;;;;;;;;;;4994017;28;20044;-70
2022/05/26 13:46:20;;;;;;;12.57;3.35;;;;;;;;;;4993966;28;20480;-71
2022/05/26 13:48:45;;;;;;;13.35;3.20;;;;;;;;;;4993851;28;20031;-71
2022/05/26 13:51:13;;;;;;;14.95;3.30;;;;;;;;;;4993762;28;20432;-71
2022/05/26 13:53:43;;;;;;;14.93;3.30;;;;;;;;;;4993719;28;20088;-70
2022/05/26 13:56:14;;;;;;;13.38;3.30;;;;;;;;;;4993688;28;20533;-70
2022/05/26 13:58:44;;;;;;;16.00;3.20;;;;;;;;;;4993622;28;20033;-71
2022/05/26 14:01:12;;;;;;;19.00;3.13;;;;;;;;;;4993453;28;20084;-70
2022/05/26 14:03:39;;;;;;;13.40;3.25;;;;;;;;;;4993506;28;20023;-70
2022/05/26 14:06:08;;;;;;;11.80;3.50;;;;;;;;;;4993568;28;20073;-71
2022/05/26 14:08:52;;;;;;;12.57;2.92;;;;;;;;;;4994087;28;20350;-70
2022/05/26 14:11:43;;;;;;;10.15;2.95;;;;;;;;;;4993560;28;20392;-71
2022/05/26 14:14:29;;;;;;;17.15;3.75;;;;;;;;;;4993060;28;20117;-71
2022/05/26 14:16:58;;;;;;;9.63;2.65;;;;;;;;;;4993195;28;20113;-69
2022/05/26 14:19:30;;;;;;;11.13;3.30;;;;;;;;;;4993799;28;20116;-70
2022/05/26 14:21:56;;;;;;;10.88;3.00;;;;;;;;;;4994052;28;20034;-69
2022/05/26 14:24:31;;;;;;;11.82;2.72;;;;;;;;;;4993580;28;20038;-71
2022/05/26 14:27:03;;;;;;;13.95;3.38;;;;;;;;;;4993292;28;20061;-71
2022/05/26 14:29:28;;;;;;;16.40;3.43;;;;;;;;;;4993605;28;20034;-72
2022/05/26 14:31:58;;;;;;;18.23;3.63;;;;;;;;;;4993363;28;20032;-74
2022/05/26 14:34:35;;;;;;;12.32;3.28;;;;;;;;;;4993316;28;20096;-71
2022/05/26 14:37:01;;;;;;;11.15;2.88;;;;;;;;;;4993213;28;20030;-72
2022/05/26 14:39:27;;;;;;;12.40;3.00;;;;;;;;;;4992751;28;20113;-70
2022/05/26 14:41:58;;;;;;;13.93;3.30;;;;;;;;;;4993144;28;20031;-69
2022/05/26 14:44:24;;;;;;;12.60;3.00;;;;;;;;;;4993085;28;20043;-71
2022/05/26 14:46:50;;;;;;;9.43;2.65;;;;;;;;;;4993158;28;20058;-71
2022/05/26 14:49:16;;;;;;;12.00;3.10;;;;;;;;;;4993371;28;20428;-71
2022/05/26 14:51:42;;;;;;;14.52;3.17;;;;;;;;;;4993153;28;20101;-70
2022/05/26 14:56:56;;;;;;;13.35;3.00;;;;;;;;;;4992665;28;20398;-70
2022/05/26 14:59:22;;;;;;;14.88;3.50;;;;;;;;;;4992805;28;20492;-70
2022/05/26 15:01:48;;;;;;;9.27;2.92;;;;;;;;;;4992702;28;20042;-71
2022/05/26 15:04:14;;;;;;;10.55;2.85;;;;;;;;;;4992059;28;20045;-70
2022/05/26 15:06:45;;;;;;;13.38;3.33;;;;;;;;;;4992432;28;20488;-70
2022/05/26 15:09:22;;;;;;;13.40;3.42;;;;;;;;;;4992358;28;20429;-70
2022/05/26 15:11:50;;;;;;;11.90;3.03;;;;;;;;;;4992585;28;20044;-70
2022/05/26 15:14:18;;;;;;;12.32;3.38;;;;;;;;;;4992889;28;20470;-70
2022/05/26 15:16:47;;;;;;;15.55;3.85;;;;;;;;;;4996317;28;20721;-70
2022/05/26 15:19:26;;;;;;;16.67;3.63;;;;;;;;;;4996129;28;20027;-71
2022/05/26 15:21:56;;;;;;;16.70;3.20;;;;;;;;;;4996656;28;20066;-70
2022/05/26 15:24:23;;;;;;;13.52;3.08;;;;;;;;;;4996584;28;20104;-70
2022/05/26 15:26:50;;;;;;;13.85;3.80;;;;;;;;;;4996575;28;20062;-70
2022/05/26 15:29:16;;;;;;;15.38;4.07;;;;;;;;;;4996389;28;20031;-70
2022/05/26 15:31:42;;;;;;;18.92;3.95;;;;;;;;;;4996120;28;20057;-70
2022/05/26 15:34:09;;;;;;;20.05;3.30;;;;;;;;;;4995967;28;20037;-72
2022/05/26 15:36:35;;;;;;;9.50;2.83;;;;;;;;;;4995766;28;20141;-70
2022/05/26 15:39:01;;;;;;;11.25;3.05;;;;;;;;;;4995991;28;20062;-69
2022/05/26 15:41:28;;;;;;;11.73;3.10;;;;;;;;;;4995451;28;20085;-71
2022/05/26 15:43:55;;;;;;;10.45;2.67;;;;;;;;;;4995368;28;20092;-72
2022/05/26 15:46:39;;;;;;;10.50;2.97;;;;;;;;;;4995470;28;20065;-69
2022/05/26 15:49:12;;;;;;;18.52;3.28;;;;;;;;;;4995606;28;20121;-71
2022/05/26 15:51:39;;;;;;;10.43;2.83;;;;;;;;;;4995647;28;20096;-70
2022/05/26 15:54:05;;;;;;;11.75;3.03;;;;;;;;;;4995548;28;20037;-69